createdAt,value
2022-09-28T00:01:25.671Z,9.20
2022-09-28T00:03:59.039Z,9.60
2022-09-28T00:06:31.342Z,11.68
2022-09-28T00:09:04.171Z,13.05
2022-09-28T00:11:36.261Z,11.35
2022-09-28T00:14:08.436Z,9.43
2022-09-28T00:16:43.746Z,15.77
2022-09-28T00:19:16.299Z,12.70
2022-09-28T00:21:48.404Z,9.52
2022-09-28T00:24:24.047Z,8.25
2022-09-28T00:27:01.510Z,11.70
2022-09-28T00:29:36.033Z,13.20
2022-09-28T00:32:12.320Z,14.90
2022-09-28T00:34:46.075Z,11.25
2022-09-28T00:37:19.737Z,9.85
2022-09-28T00:39:51.751Z,10.55
2022-09-28T00:42:25.978Z,12.82
2022-09-28T00:44:59.413Z,13.93
2022-09-28T00:47:51.024Z,13.25
2022-09-28T00:50:35.807Z,11.60
2022-09-28T00:53:20.545Z,10.40
2022-09-28T00:56:00.562Z,10.95
2022-09-28T00:58:38.424Z,15.10
2022-09-28T01:01:10.515Z,14.32
2022-09-28T01:03:45.492Z,11.52
2022-09-28T01:06:24.171Z,9.90
2022-09-28T01:08:59.178Z,12.13
2022-09-28T01:11:33.740Z,12.15
2022-09-28T01:14:09.753Z,9.63
2022-09-28T01:16:53.490Z,9.25
2022-09-28T01:20:13.042Z,10.50
2022-09-28T01:23:25.530Z,12.90
2022-09-28T01:26:22.179Z,12.13
2022-09-28T01:29:19.785Z,14.55
2022-09-28T01:32:36.689Z,12.07
2022-09-28T01:35:35.860Z,12.23
2022-09-28T01:38:25.489Z,10.32
2022-09-28T01:40:59.931Z,12.20
2022-09-28T01:43:37.964Z,14.45
2022-09-28T01:46:27.840Z,12.18
2022-09-28T01:49:08.961Z,31.58
2022-09-28T01:52:02.864Z,25.42
2022-09-28T01:54:52.921Z,17.40
2022-09-28T01:57:36.021Z,19.42
2022-09-28T02:00:11.998Z,17.20
2022-09-28T02:02:56.272Z,18.52
2022-09-28T02:05:33.542Z,12.73
2022-09-28T02:08:33.727Z,11.05
2022-09-28T02:11:09.695Z,13.30
2022-09-28T02:13:50.227Z,17.42
2022-09-28T02:16:42.743Z,16.73
2022-09-28T02:19:41.433Z,17.50
2022-09-28T02:22:37.347Z,20.52
2022-09-28T02:25:21.988Z,20.13
2022-09-28T02:28:02.542Z,16.48
2022-09-28T02:30:39.674Z,17.17
2022-09-28T02:33:29.658Z,36.83
2022-09-28T02:36:03.585Z,19.10
2022-09-28T02:38:37.282Z,18.63
2022-09-28T02:41:26.881Z,14.00
2022-09-28T02:44:36.406Z,18.63
2022-09-28T02:47:22.538Z,14.47
2022-09-28T02:50:13.229Z,15.00
2022-09-28T02:53:28.200Z,18.83
2022-09-28T02:56:39.507Z,20.80
2022-09-28T02:59:31.101Z,19.35
2022-09-28T03:02:41.270Z,16.13
2022-09-28T03:05:40.255Z,13.95
2022-09-28T03:08:42.331Z,15.52
2022-09-28T03:11:30.593Z,17.52
2022-09-28T03:14:04.374Z,18.80
2022-09-28T03:16:36.371Z,20.55
2022-09-28T03:19:08.288Z,14.98
2022-09-28T03:21:40.450Z,15.18
2022-09-28T03:24:12.377Z,16.17
2022-09-28T03:26:44.331Z,15.55
2022-09-28T03:29:16.462Z,16.85
2022-09-28T03:31:49.233Z,21.02
2022-09-28T03:34:21.249Z,17.95
2022-09-28T03:36:53.154Z,16.88
2022-09-28T03:39:25.765Z,21.85
2022-09-28T03:42:00.443Z,21.65
2022-09-28T03:44:32.614Z,19.13
2022-09-28T03:47:04.531Z,18.83
2022-09-28T03:49:37.085Z,17.48
2022-09-28T03:52:09.008Z,18.48
2022-09-28T03:54:42.294Z,24.48
2022-09-28T03:57:16.567Z,18.70
2022-09-28T03:59:48.472Z,19.30
2022-09-28T04:02:20.421Z,19.77
2022-09-28T04:04:52.507Z,22.23
2022-09-28T04:07:26.962Z,20.35
2022-09-28T04:10:02.225Z,20.70
2022-09-28T04:12:34.144Z,18.58
2022-09-28T04:15:06.739Z,25.15
2022-09-28T04:17:40.275Z,19.20
2022-09-28T04:20:12.281Z,22.33
2022-09-28T04:22:44.506Z,21.10
2022-09-28T04:25:16.513Z,17.17
2022-09-28T04:28:08.358Z,21.83
2022-09-28T04:30:40.251Z,18.40
2022-09-28T04:33:12.178Z,21.60
2022-09-28T04:35:44.194Z,23.15
2022-09-28T04:38:23.483Z,19.50
2022-09-28T04:41:07.964Z,17.40
2022-09-28T04:43:39.887Z,17.15
2022-09-28T04:46:12.102Z,24.20
2022-09-28T04:48:44.188Z,19.75
2022-09-28T04:51:16.234Z,17.25
2022-09-28T04:53:48.250Z,18.50
2022-09-28T04:56:20.204Z,17.20
2022-09-28T04:58:53.004Z,16.55
2022-09-28T05:01:25.783Z,18.92
2022-09-28T05:03:57.845Z,14.15
2022-09-28T05:06:30.823Z,15.98
2022-09-28T05:09:02.797Z,16.42
2022-09-28T05:11:34.734Z,19.38
2022-09-28T05:14:06.696Z,17.55
2022-09-28T05:16:38.685Z,17.15
2022-09-28T05:19:11.728Z,18.88
2022-09-28T05:21:45.852Z,30.30
2022-09-28T05:24:17.809Z,20.73
2022-09-28T05:26:49.854Z,13.85
2022-09-28T05:29:21.773Z,18.05
2022-09-28T05:31:53.785Z,16.23
2022-09-28T05:34:25.886Z,21.55
2022-09-28T05:36:57.826Z,18.33
2022-09-28T05:39:29.798Z,12.45
2022-09-28T05:42:01.792Z,10.30
2022-09-28T05:44:33.795Z,10.85
2022-09-28T05:47:05.924Z,13.02
2022-09-28T05:49:37.855Z,10.32
2022-09-28T05:52:09.751Z,10.75
2022-09-28T05:54:41.681Z,12.82
2022-09-28T05:57:14.893Z,10.40
2022-09-28T05:59:46.966Z,15.95
2022-09-28T06:02:18.933Z,11.27
2022-09-28T06:04:51.320Z,10.73
2022-09-28T06:07:23.982Z,10.80
2022-09-28T06:09:56.026Z,11.68
2022-09-28T06:12:28.038Z,9.63
2022-09-28T06:15:01.295Z,12.15
2022-09-28T06:17:33.399Z,10.68
2022-09-28T06:20:06.073Z,7.90
2022-09-28T06:22:38.908Z,12.10
2022-09-28T06:25:11.033Z,14.02
2022-09-28T06:27:43.217Z,11.75
2022-09-28T06:30:15.165Z,10.60
2022-09-28T06:32:47.099Z,9.52
2022-09-28T06:35:19.060Z,10.13
2022-09-28T06:37:51.379Z,13.23
2022-09-28T06:40:24.104Z,8.93
2022-09-28T06:43:10.705Z,12.25
2022-09-28T06:45:43.593Z,6.82
2022-09-28T06:48:16.592Z,7.97
2022-09-28T06:50:50.920Z,12.80
2022-09-28T06:53:23.782Z,11.43
2022-09-28T06:55:58.953Z,9.35
2022-09-28T06:58:32.377Z,12.10
2022-09-28T07:01:04.621Z,10.90
2022-09-28T07:03:36.789Z,11.27
2022-09-28T07:06:12.500Z,11.55
2022-09-28T07:08:47.381Z,9.50
2022-09-28T07:11:27.018Z,12.52
2022-09-28T07:13:58.946Z,9.00
2022-09-28T07:16:51.929Z,8.82
2022-09-28T07:19:22.833Z,7.90
2022-09-28T07:22:04.241Z,10.75
2022-09-28T07:24:37.261Z,13.38
2022-09-28T07:27:09.657Z,8.25
2022-09-28T07:29:41.667Z,15.05
2022-09-28T07:32:13.625Z,13.20
2022-09-28T07:34:45.700Z,12.00
2022-09-28T07:37:19.019Z,8.63
2022-09-28T07:40:09.375Z,9.30
2022-09-28T07:42:41.702Z,8.90
2022-09-28T07:45:13.743Z,10.93
2022-09-28T07:47:45.954Z,9.18
2022-09-28T07:50:18.212Z,6.40
2022-09-28T07:52:50.238Z,7.85
2022-09-28T07:55:22.165Z,3.53
2022-09-28T07:58:01.773Z,5.57
2022-09-28T08:00:34.354Z,7.47
2022-09-28T08:03:06.449Z,6.90
2022-09-28T08:05:39.194Z,8.65
2022-09-28T08:08:11.351Z,3.40
2022-09-28T08:10:47.163Z,4.40
2022-09-28T08:13:22.249Z,6.57
2022-09-28T08:15:55.778Z,3.85
2022-09-28T08:18:27.742Z,6.97
2022-09-28T08:21:18.015Z,5.80
2022-09-28T08:23:50.739Z,6.35
2022-09-28T08:26:22.685Z,6.82
2022-09-28T08:28:54.586Z,4.15
2022-09-28T08:31:26.503Z,7.88
2022-09-28T08:33:58.407Z,12.15
2022-09-28T08:36:30.348Z,5.03
2022-09-28T08:39:02.374Z,4.35
2022-09-28T08:42:10.635Z,6.47
2022-09-28T08:44:57.206Z,7.85
2022-09-28T08:48:02.938Z,7.20
2022-09-28T08:50:48.492Z,8.52
2022-09-28T08:53:42.379Z,8.57
2022-09-28T08:56:41.653Z,7.75
2022-09-28T08:59:22.253Z,10.48
2022-09-28T09:02:06.125Z,9.27
2022-09-28T09:04:38.129Z,9.63
2022-09-28T09:07:28.446Z,9.05
2022-09-28T09:10:28.693Z,8.90
2022-09-28T09:13:27.975Z,11.70
2022-09-28T09:16:45.669Z,21.02
2022-09-28T09:20:18.837Z,17.58
2022-09-28T09:23:00.984Z,20.48
2022-09-28T09:25:49.793Z,14.55
2022-09-28T09:28:52.493Z,11.57
2022-09-28T09:34:26.600Z,12.30
2022-09-28T09:37:24.259Z,15.07
2022-09-28T09:40:56.588Z,14.77
2022-09-28T09:44:16.605Z,16.63
2022-09-28T09:47:04.697Z,16.20
2022-09-28T09:50:05.490Z,17.52
2022-09-28T09:52:55.297Z,15.00
2022-09-28T09:55:37.230Z,17.38
2022-09-28T09:58:22.754Z,16.55
2022-09-28T10:01:01.822Z,19.52
2022-09-28T10:03:37.114Z,23.15
2022-09-28T10:06:26.541Z,17.63
2022-09-28T10:09:08.879Z,17.55
2022-09-28T10:11:45.811Z,18.80
2022-09-28T10:14:24.181Z,21.08
2022-09-28T10:16:57.863Z,22.80
2022-09-28T10:19:35.057Z,20.30
2022-09-28T10:22:07.700Z,23.80
2022-09-28T10:24:46.404Z,19.75
2022-09-28T10:27:24.179Z,23.05
2022-09-28T10:30:08.264Z,22.23
2022-09-28T10:32:46.606Z,18.35
2022-09-28T10:35:18.667Z,21.85
2022-09-28T10:38:14.278Z,21.15
2022-09-28T10:41:01.926Z,16.73
2022-09-28T10:43:39.576Z,20.13
2022-09-28T10:46:14.279Z,16.77
2022-09-28T10:48:54.681Z,13.82
2022-09-28T10:51:56.302Z,16.02
2022-09-28T10:54:31.427Z,16.80
2022-09-28T10:57:03.692Z,13.25
2022-09-28T10:59:40.902Z,12.27
2022-09-28T11:02:27.273Z,14.43
2022-09-28T11:05:03.119Z,16.42
2022-09-28T11:07:46.661Z,15.70
2022-09-28T11:10:25.183Z,16.75
2022-09-28T11:12:58.109Z,16.75
2022-09-28T11:15:33.283Z,19.90
2022-09-28T11:18:32.571Z,20.55
2022-09-28T11:21:12.531Z,18.60
2022-09-28T11:26:43.751Z,17.13
2022-09-28T11:29:41.972Z,14.82
2022-09-28T11:32:16.017Z,15.10
2022-09-28T11:35:05.235Z,13.20
2022-09-28T11:38:23.720Z,14.10
2022-09-28T11:41:20.358Z,12.35
2022-09-28T11:44:07.000Z,11.30
2022-09-28T11:47:09.786Z,14.37
2022-09-28T11:49:52.791Z,10.30
2022-09-28T11:52:45.586Z,12.00
2022-09-28T11:55:34.463Z,9.68
2022-09-28T11:58:31.024Z,13.93
2022-09-28T12:01:35.593Z,10.95
2022-09-28T12:04:18.080Z,13.30
2022-09-28T12:07:12.724Z,10.82
2022-09-28T12:09:55.385Z,11.23
2022-09-28T12:13:01.305Z,13.82
2022-09-28T12:19:18.723Z,15.88
2022-09-28T12:22:01.212Z,10.30
2022-09-28T12:25:00.068Z,13.10
2022-09-28T12:27:52.969Z,11.70
2022-09-28T12:30:25.864Z,10.90
2022-09-28T12:33:16.035Z,16.85
2022-09-28T12:36:28.545Z,12.05
2022-09-28T12:39:53.413Z,12.13
2022-09-28T12:43:10.626Z,12.48
2022-09-28T12:46:17.282Z,14.40
2022-09-28T12:50:13.770Z,10.70
2022-09-28T12:55:41.169Z,16.00
2022-09-28T12:59:06.275Z,11.18
2022-09-28T13:02:14.414Z,13.55
2022-09-28T13:05:23.978Z,31.08
2022-09-28T13:08:10.954Z,20.88
2022-09-28T13:10:51.593Z,11.50
2022-09-28T13:13:56.357Z,13.90
2022-09-28T13:16:59.780Z,10.95
2022-09-28T13:19:58.090Z,9.75
2022-09-28T13:22:44.482Z,12.35
2022-09-28T13:25:20.830Z,11.82
2022-09-28T13:28:05.231Z,12.68
2022-09-28T13:30:40.403Z,12.23
2022-09-28T13:33:44.568Z,8.90
2022-09-28T13:36:47.872Z,18.58
2022-09-28T13:39:46.896Z,10.32
2022-09-28T13:42:56.397Z,14.85
2022-09-28T13:45:53.520Z,10.20
2022-09-28T13:48:50.648Z,10.45
2022-09-28T13:52:06.765Z,22.08
2022-09-28T13:55:03.783Z,7.18
2022-09-28T13:57:54.262Z,9.43
2022-09-28T14:00:51.393Z,8.52
2022-09-28T14:04:06.785Z,12.10
2022-09-28T14:06:48.093Z,9.32
2022-09-28T14:09:47.822Z,7.78
2022-09-28T14:12:50.327Z,12.68
2022-09-28T14:15:37.658Z,8.93
2022-09-28T14:18:33.236Z,9.88
2022-09-28T14:21:20.623Z,10.45
2022-09-28T14:24:08.107Z,5.78
2022-09-28T14:27:26.754Z,6.97
2022-09-28T14:30:24.294Z,8.27
2022-09-28T14:32:59.840Z,9.52
2022-09-28T14:35:34.293Z,10.30
2022-09-28T14:38:37.176Z,10.82
2022-09-28T14:41:33.878Z,10.05
2022-09-28T14:44:18.892Z,12.45
2022-09-28T14:47:44.260Z,12.13
2022-09-28T14:50:26.072Z,9.90
2022-09-28T14:53:06.587Z,10.10
2022-09-28T14:55:50.300Z,7.90
2022-09-28T14:58:27.590Z,6.45
2022-09-28T15:01:12.944Z,9.48
2022-09-28T15:03:48.894Z,6.72
2022-09-28T15:06:24.165Z,12.15
2022-09-28T15:08:56.225Z,8.35
2022-09-28T15:11:28.166Z,8.90
2022-09-28T15:14:08.351Z,6.35
2022-09-28T15:16:40.405Z,7.60
2022-09-28T15:20:08.916Z,10.68
2022-09-28T15:22:49.649Z,12.50
2022-09-28T15:25:25.023Z,10.88
2022-09-28T15:28:02.449Z,9.52
2022-09-28T15:30:36.542Z,7.68
2022-09-28T15:33:49.052Z,9.18
2022-09-28T15:36:26.766Z,8.70
2022-09-28T15:39:30.142Z,9.82
2022-09-28T15:42:02.597Z,9.77
2022-09-28T15:44:38.622Z,7.55
2022-09-28T15:47:26.830Z,7.80
2022-09-28T15:50:19.575Z,11.38
2022-09-28T15:53:01.189Z,6.85
2022-09-28T15:55:40.044Z,6.65
2022-09-28T15:58:21.105Z,7.45
2022-09-28T16:01:36.741Z,10.07
2022-09-28T16:04:48.208Z,12.07
2022-09-28T16:07:23.398Z,9.05
2022-09-28T16:10:25.647Z,10.65
2022-09-28T16:13:14.437Z,9.20
2022-09-28T16:15:46.486Z,10.85
2022-09-28T16:18:22.261Z,9.88
2022-09-28T16:21:45.606Z,8.05
2022-09-28T16:24:30.560Z,6.78
2022-09-28T16:27:16.404Z,8.75
2022-09-28T16:30:16.738Z,11.80
2022-09-28T16:33:08.584Z,10.35
2022-09-28T16:35:40.416Z,8.15
2022-09-28T16:38:18.261Z,10.88
2022-09-28T16:40:54.952Z,10.80
2022-09-28T16:43:30.318Z,11.07
2022-09-28T16:46:14.470Z,10.68
2022-09-28T16:48:51.027Z,12.50
2022-09-28T16:51:23.697Z,11.65
2022-09-28T16:54:18.989Z,15.48
2022-09-28T16:56:51.057Z,10.02
2022-09-28T16:59:23.102Z,10.50
2022-09-28T17:01:56.819Z,12.38
2022-09-28T17:04:28.771Z,14.02
2022-09-28T17:07:00.853Z,14.40
2022-09-28T17:09:33.222Z,12.88
2022-09-28T17:12:23.028Z,14.65
2022-09-28T17:14:55.382Z,20.95
2022-09-28T17:17:30.002Z,19.02
2022-09-28T17:20:13.231Z,16.20
2022-09-28T17:22:45.289Z,20.25
2022-09-28T17:25:18.127Z,22.55
2022-09-28T17:27:51.089Z,28.48
2022-09-28T17:30:23.745Z,23.98
2022-09-28T17:33:00.095Z,22.73
2022-09-28T17:35:34.160Z,23.40
2022-09-28T17:38:15.403Z,31.30
2022-09-28T17:40:48.307Z,28.77
2022-09-28T17:43:22.246Z,40.60
2022-09-28T17:45:54.231Z,39.80
2022-09-28T17:48:27.268Z,45.00
2022-09-28T17:50:59.957Z,34.67
2022-09-28T17:53:31.927Z,29.58
2022-09-28T17:56:03.889Z,35.72
2022-09-28T17:58:36.242Z,41.03
2022-09-28T18:01:09.326Z,33.63
2022-09-28T18:03:42.218Z,35.25
2022-09-28T18:06:20.089Z,32.67
2022-09-28T18:08:52.096Z,36.15
2022-09-28T18:11:24.074Z,31.75
2022-09-28T18:13:56.030Z,32.90
2022-09-28T18:16:28.932Z,29.30
2022-09-28T18:19:01.113Z,36.25
2022-09-28T18:21:33.566Z,28.08
2022-09-28T18:24:05.744Z,32.20
2022-09-28T18:26:37.874Z,29.52
2022-09-28T18:29:10.840Z,33.58
2022-09-28T18:31:42.885Z,29.73
2022-09-28T18:34:15.717Z,28.70
2022-09-28T18:36:47.880Z,29.20
2022-09-28T18:39:19.996Z,31.20
2022-09-28T18:41:52.279Z,28.20
2022-09-28T18:44:24.484Z,27.83
2022-09-28T18:46:56.482Z,33.92
2022-09-28T18:49:31.195Z,28.23
2022-09-28T18:52:03.682Z,26.63
2022-09-28T18:54:35.718Z,26.75
2022-09-28T18:57:07.748Z,30.77
2022-09-28T18:59:39.682Z,34.25
2022-09-28T19:02:12.085Z,30.63
2022-09-28T19:04:44.279Z,36.67
2022-09-28T19:07:17.299Z,28.00
2022-09-28T19:09:50.237Z,31.50
2022-09-28T19:12:22.362Z,41.08
2022-09-28T19:14:54.374Z,38.25
2022-09-28T19:17:26.488Z,33.28
2022-09-28T19:19:58.905Z,33.08
2022-09-28T19:22:31.454Z,33.42
2022-09-28T19:25:03.462Z,28.77
2022-09-28T19:27:35.826Z,30.00
2022-09-28T19:30:08.815Z,29.20
2022-09-28T19:32:42.123Z,32.08
2022-09-28T19:35:14.129Z,30.20
2022-09-28T19:37:46.886Z,30.75
2022-09-28T19:40:18.896Z,32.85
2022-09-28T19:42:50.897Z,23.63
2022-09-28T19:45:23.702Z,25.08
2022-09-28T19:47:59.548Z,31.25
2022-09-28T19:50:32.426Z,29.67
2022-09-28T19:53:07.281Z,28.40
2022-09-28T19:55:40.923Z,25.05
2022-09-28T19:58:12.889Z,29.20
2022-09-28T20:00:44.815Z,28.13
2022-09-28T20:03:18.826Z,32.20
2022-09-28T20:05:57.637Z,32.72
2022-09-28T20:08:33.055Z,34.10
2022-09-28T20:11:05.544Z,28.58
2022-09-28T20:13:37.861Z,34.53
2022-09-28T20:16:14.322Z,28.20
2022-09-28T20:18:50.389Z,32.08
2022-09-28T20:21:26.774Z,27.95
2022-09-28T20:23:59.098Z,30.63
2022-09-28T20:26:37.370Z,28.90
2022-09-28T20:29:09.893Z,26.00
2022-09-28T20:31:42.795Z,28.92
2022-09-28T20:34:15.006Z,25.27
2022-09-28T20:36:46.944Z,28.33
2022-09-28T20:39:19.123Z,30.38
2022-09-28T20:41:51.154Z,34.03
2022-09-28T20:44:23.196Z,39.67
2022-09-28T20:46:56.741Z,30.85
2022-09-28T20:49:28.817Z,36.85
2022-09-28T20:52:00.835Z,32.28
2022-09-28T20:54:32.840Z,33.20
2022-09-28T20:57:17.553Z,27.60
2022-09-28T20:59:54.583Z,40.78
2022-09-28T21:02:26.962Z,33.20
2022-09-28T21:04:58.982Z,31.13
2022-09-28T21:07:31.141Z,33.88
2022-09-28T21:10:03.153Z,37.22
2022-09-28T21:12:35.046Z,38.67
2022-09-28T21:15:07.664Z,49.72
2022-09-28T21:17:39.624Z,33.10
2022-09-28T21:20:11.567Z,26.98
2022-09-28T21:22:43.531Z,38.95
2022-09-28T21:25:15.549Z,28.67
2022-09-28T21:27:47.967Z,29.80
2022-09-28T21:30:20.180Z,33.50
2022-09-28T21:32:52.238Z,39.17
2022-09-28T21:35:24.401Z,38.60
2022-09-28T21:37:56.366Z,31.27
2022-09-28T21:40:28.334Z,34.60
2022-09-28T21:43:00.430Z,32.60
2022-09-28T21:45:32.899Z,33.38
2022-09-28T21:48:05.154Z,31.30
2022-09-28T21:50:37.107Z,30.80
2022-09-28T21:53:09.020Z,29.88
2022-09-28T21:55:40.942Z,30.95
2022-09-28T21:58:12.903Z,31.20
2022-09-28T22:00:44.831Z,35.38
2022-09-28T22:03:17.257Z,32.60
2022-09-28T22:05:52.232Z,30.38
2022-09-28T22:08:25.371Z,26.30
2022-09-28T22:11:12.108Z,31.90
2022-09-28T22:13:53.634Z,31.45
2022-09-28T22:16:29.348Z,33.10
2022-09-28T22:19:01.664Z,25.90
2022-09-28T22:21:35.100Z,28.73
2022-09-28T22:24:07.849Z,34.05
2022-09-28T22:26:40.543Z,27.75
2022-09-28T22:29:12.538Z,25.20
2022-09-28T22:31:44.510Z,24.45
2022-09-28T22:34:16.501Z,26.20
2022-09-28T22:36:48.439Z,30.80
2022-09-28T22:39:20.359Z,24.42
2022-09-28T22:41:52.653Z,27.20
2022-09-28T22:44:25.528Z,26.52
2022-09-28T22:46:57.529Z,29.50
2022-09-28T22:49:29.922Z,25.70
2022-09-28T22:52:02.103Z,26.33
2022-09-28T22:54:34.112Z,27.38
2022-09-28T22:57:06.311Z,27.15
2022-09-28T22:59:38.361Z,24.02
2022-09-28T23:02:10.305Z,24.00
2022-09-28T23:04:42.303Z,24.80
2022-09-28T23:07:14.244Z,24.45
2022-09-28T23:09:46.155Z,26.17
2022-09-28T23:12:18.065Z,30.58
2022-09-28T23:14:49.967Z,25.23
2022-09-28T23:17:21.992Z,24.35
2022-09-28T23:19:53.964Z,28.00
2022-09-28T23:22:27.450Z,23.52
2022-09-28T23:24:59.943Z,29.70
2022-09-28T23:27:31.978Z,26.30
2022-09-28T23:30:04.174Z,25.42
2022-09-28T23:32:36.217Z,22.67
2022-09-28T23:35:09.110Z,24.02
2022-09-28T23:37:41.078Z,22.42
2022-09-28T23:40:13.097Z,35.20
2022-09-28T23:42:45.144Z,23.38
2022-09-28T23:45:17.042Z,22.05
2022-09-28T23:47:49.112Z,25.10
2022-09-28T23:50:20.997Z,26.02
2022-09-28T23:52:53.111Z,25.55
2022-09-28T23:55:25.046Z,25.73
2022-09-28T23:57:58.233Z,24.35
